Time;durP1;ratioP1;P1;durP2;ratioP2;P2;SDS_P1;SDS_P2;PMS_P1;PMS_P2;Temp;Humidity;BMP_temperature;BMP_pressure;BME280_temperature;BME280_humidity;BME280_pressure;Samples;Min_cycle;Max_cycle;Signal;HPM_P1;HPM_P2
2022/05/24 00:00:10;;;;;;;6.45;1.60;;;16.00;99.90;;;;;;4954372;28;20042;-76
2022/05/24 00:02:36;;;;;;;7.72;2.35;;;16.00;99.90;;;;;;4954821;29;20375;-75
2022/05/24 00:05:02;;;;;;;5.68;1.50;;;16.00;99.90;;;;;;4953797;29;20110;-75
2022/05/24 00:07:29;;;;;;;6.13;1.42;;;16.00;99.90;;;;;;4953920;29;20023;-76
2022/05/24 00:09:54;;;;;;;7.75;1.70;;;16.00;99.90;;;;;;4953530;28;20031;-76
2022/05/24 00:12:20;;;;;;;6.75;1.67;;;15.90;99.90;;;;;;4953986;28;20086;-75
2022/05/24 00:17:30;;;;;;;5.75;1.40;;;15.90;99.90;;;;;;4954515;29;20086;-76
2022/05/24 00:19:56;;;;;;;9.20;2.08;;;15.90;99.90;;;;;;4943969;28;20027;-76
2022/05/24 00:22:22;;;;;;;5.25;1.40;;;15.80;99.90;;;;;;4937820;29;20023;-76
2022/05/24 00:24:47;;;;;;;8.40;1.67;;;16.00;99.90;;;;;;4953350;28;20046;-75
2022/05/24 00:27:13;;;;;;;6.18;1.60;;;15.90;99.90;;;;;;4953697;29;20102;-77
2022/05/24 00:29:38;;;;;;;11.55;1.88;;;15.90;99.90;;;;;;4954069;28;20039;-76
2022/05/24 00:32:04;;;;;;;7.38;1.67;;;15.90;99.90;;;;;;4954244;28;20027;-76
2022/05/24 00:34:30;;;;;;;11.52;2.03;;;15.80;99.90;;;;;;4937419;28;20564;-75
2022/05/24 00:36:56;;;;;;;5.03;1.38;;;15.70;99.90;;;;;;4945978;29;20058;-75
2022/05/24 00:39:21;;;;;;;6.95;1.92;;;15.90;99.90;;;;;;4948971;29;20110;-76
2022/05/24 00:41:57;;;;;;;7.50;1.48;;;15.70;99.90;;;;;;4944662;28;20118;-76
2022/05/24 00:44:27;;;;;;;5.32;1.52;;;15.70;99.90;;;;;;4941874;29;20033;-76
2022/05/24 00:46:59;;;;;;;6.78;1.50;;;15.90;99.90;;;;;;4954448;29;20037;-75
2022/05/24 00:49:29;;;;;;;9.68;1.65;;;15.90;99.90;;;;;;4953686;29;20035;-76
2022/05/24 00:52:02;;;;;;;8.70;1.73;;;15.90;99.90;;;;;;4953694;28;20123;-76
2022/05/24 00:54:28;;;;;;;7.30;1.75;;;15.80;99.90;;;;;;4956696;28;20494;-76
2022/05/24 00:56:56;;;;;;;5.10;1.60;;;15.70;99.90;;;;;;4957686;28;20062;-77
2022/05/24 00:59:45;;;;;;;5.32;1.13;;;15.60;99.90;;;;;;4956823;28;20031;-76
2022/05/24 01:02:11;;;;;;;6.95;1.30;;;15.60;99.90;;;;;;4957245;28;20027;-75
2022/05/24 01:04:37;;;;;;;5.38;1.58;;;15.70;99.90;;;;;;4957653;28;20059;-76
2022/05/24 01:07:04;;;;;;;8.60;1.60;;;15.70;99.90;;;;;;4957114;29;20028;-76
2022/05/24 01:09:43;;;;;;;6.65;1.50;;;15.70;99.90;;;;;;4957285;28;20039;-75
2022/05/24 01:12:15;;;;;;;7.03;1.23;;;15.70;99.90;;;;;;4956743;28;20027;-76
2022/05/24 01:14:42;;;;;;;;;;;15.60;99.90;;;;;;4946336;28;20114;-75
2022/05/24 01:17:07;;;;;;;6.60;1.23;;;15.60;99.90;;;;;;4950125;29;19957;-77
2022/05/24 01:19:41;;;;;;;6.22;1.20;;;15.70;99.90;;;;;;4957239;28;20106;-76
2022/05/24 01:22:27;;;;;;;9.13;1.40;;;15.60;99.90;;;;;;4956575;28;20083;-76
2022/05/24 01:25:08;;;;;;;6.20;1.50;;;15.60;99.90;;;;;;4957191;28;20023;-76
2022/05/24 01:27:35;;;;;;;9.85;1.55;;;15.60;99.90;;;;;;4957440;28;20066;-77
2022/05/24 01:30:05;;;;;;;8.18;1.42;;;15.50;99.90;;;;;;4956806;28;20324;-76
2022/05/24 01:38:04;;;;;;;8.15;1.48;;;15.40;99.90;;;;;;4945614;29;20058;-76
2022/05/24 01:40:30;;;;;;;7.22;1.42;;;15.40;99.90;;;;;;4956587;28;20038;-76
2022/05/24 01:42:56;;;;;;;6.88;1.10;;;15.40;99.90;;;;;;4956602;28;20027;-77
2022/05/24 01:45:31;;;;;;;4.65;1.13;;;15.50;99.90;;;;;;4955201;28;20054;-75
2022/05/24 01:48:01;;;;;;;7.30;1.55;;;15.50;99.90;;;;;;4956830;28;20479;-78
2022/05/24 01:50:28;;;;;;;9.18;1.38;;;15.40;99.90;;;;;;4955645;29;20376;-76
2022/05/24 01:53:09;;;;;;;7.93;1.67;;;15.30;99.90;;;;;;4944381;28;20395;-76
2022/05/24 01:55:40;;;;;;;7.85;1.30;;;15.30;99.90;;;;;;4953216;29;20037;-76
2022/05/24 01:58:10;;;;;;;12.05;1.70;;;15.30;99.90;;;;;;4945833;29;20020;-75
2022/05/24 02:00:37;;;;;;;6.18;1.42;;;15.20;99.90;;;;;;4953333;29;20635;-76
2022/05/24 02:03:04;;;;;;;4.80;1.15;;;15.30;99.90;;;;;;4956128;28;20379;-75
2022/05/24 02:05:39;;;;;;;4.47;1.20;;;15.30;99.90;;;;;;4955300;28;20035;-77
2022/05/24 02:08:07;;;;;;;4.95;1.65;;;15.40;99.90;;;;;;4956465;28;20016;-76
2022/05/24 02:10:41;;;;;;;9.27;1.30;;;15.30;99.90;;;;;;4956072;28;20102;-76
2022/05/24 02:13:08;;;;;;;12.70;2.22;;;15.30;99.90;;;;;;4956735;28;20090;-76
2022/05/24 02:15:38;;;;;;;8.57;2.00;;;15.20;99.90;;;;;;4955465;28;20031;-76
2022/05/24 02:18:07;;;;;;;11.73;2.03;;;15.20;99.90;;;;;;4956029;28;20026;-76
2022/05/24 02:20:44;;;;;;;9.63;2.03;;;15.20;99.90;;;;;;4955741;28;20475;-76
2022/05/24 02:23:13;;;;;;;5.05;1.15;;;15.30;99.90;;;;;;4955863;29;20027;-76
2022/05/24 02:25:46;;;;;;;13.18;1.75;;;15.40;99.90;;;;;;4956294;28;20031;-76
2022/05/24 02:28:14;;;;;;;8.45;1.40;;;15.30;99.90;;;;;;4954177;28;20031;-76
2022/05/24 02:30:44;;;;;;;6.75;1.50;;;15.20;99.90;;;;;;4955708;28;20030;-76
2022/05/24 02:33:10;;;;;;;5.63;1.30;;;15.30;99.90;;;;;;4939624;28;20365;-73
2022/05/24 02:35:36;;;;;;;3.50;1.40;;;15.30;99.90;;;;;;4936333;29;20046;-77
2022/05/24 02:38:02;;;;;;;7.65;1.40;;;15.20;99.90;;;;;;4952072;29;20046;-77
2022/05/24 02:43:12;;;;;;;5.65;1.45;;;15.20;99.90;;;;;;4955926;29;20163;-76
2022/05/24 02:45:38;;;;;;;13.85;1.83;;;15.20;99.90;;;;;;4956076;28;20110;-77
2022/05/24 02:48:04;;;;;;;9.30;1.80;;;15.30;99.90;;;;;;4953715;29;20039;-76
2022/05/24 02:50:30;;;;;;;4.70;1.33;;;15.20;99.90;;;;;;4938876;28;20051;-75
2022/05/24 02:52:56;;;;;;;8.65;1.63;;;15.20;99.90;;;;;;4945078;29;20392;-76
2022/05/24 02:55:22;;;;;;;7.22;1.58;;;15.20;99.90;;;;;;4955353;29;20036;-75
2022/05/24 02:57:47;;;;;;;8.70;1.25;;;15.10;99.90;;;;;;4955116;29;20023;-75
2022/05/24 03:00:17;;;;;;;7.78;1.50;;;15.10;99.90;;;;;;4955421;29;20106;-76
2022/05/24 03:02:43;;;;;;;8.15;1.85;;;15.20;99.90;;;;;;4954910;28;20108;-76
2022/05/24 03:05:10;;;;;;;5.85;1.67;;;15.20;99.90;;;;;;4955134;29;20042;-75
2022/05/24 03:10:21;;;;;;;6.80;1.42;;;15.20;99.90;;;;;;4955280;29;20113;-75
2022/05/24 03:15:31;;;;;;;5.93;1.48;;;15.20;99.90;;;;;;4953259;28;20038;-75
2022/05/24 03:17:57;;;;;;;8.52;1.75;;;15.10;99.90;;;;;;4945860;28;20016;-76
2022/05/24 03:20:23;;;;;;;4.70;1.48;;;15.20;99.90;;;;;;4935945;29;20024;-76
2022/05/24 03:22:48;;;;;;;5.65;1.45;;;15.10;99.90;;;;;;4951124;29;20027;-76
2022/05/24 03:25:14;;;;;;;8.70;1.73;;;15.20;99.90;;;;;;4955448;29;20039;-76
2022/05/24 03:27:40;;;;;;;5.47;2.08;;;15.00;99.90;;;;;;4954754;28;20054;-74
2022/05/24 03:30:07;;;;;;;7.03;1.15;;;15.10;99.90;;;;;;4954748;28;20037;-74
2022/05/24 03:32:36;;;;;;;7.63;1.88;;;15.10;99.90;;;;;;4954511;28;20034;-76
2022/05/24 03:35:04;;;;;;;6.82;1.52;;;15.10;99.90;;;;;;4954469;28;20466;-76
2022/05/24 03:37:29;;;;;;;8.57;1.50;;;15.00;99.90;;;;;;4951675;29;20510;-76
2022/05/24 03:39:55;;;;;;;6.03;1.55;;;15.00;99.90;;;;;;4954880;29;20023;-76
2022/05/24 03:42:21;;;;;;;8.88;1.80;;;15.00;99.90;;;;;;4952489;29;20027;-77
2022/05/24 03:44:47;;;;;;;3.47;1.13;;;15.00;99.90;;;;;;4954524;28;20031;-76
2022/05/24 03:47:12;;;;;;;5.43;1.30;;;14.90;99.90;;;;;;4954967;28;20431;-76
2022/05/24 03:49:38;;;;;;;7.22;1.50;;;14.90;99.90;;;;;;4953651;28;20038;-76
2022/05/24 03:52:04;;;;;;;4.00;1.02;;;15.00;99.90;;;;;;4953956;29;20054;-76
2022/05/24 03:54:30;;;;;;;5.10;1.00;;;14.90;99.90;;;;;;4953749;29;20054;-77
2022/05/24 03:59:40;;;;;;;8.43;1.77;;;14.80;99.90;;;;;;4953803;29;20038;-77
2022/05/24 04:02:06;;;;;;;7.72;1.60;;;14.80;99.90;;;;;;4954387;28;20070;-76
2022/05/24 04:04:32;;;;;;;7.68;1.10;;;14.90;99.90;;;;;;4954343;28;20371;-76
2022/05/24 04:06:58;;;;;;;4.90;1.35;;;14.80;99.90;;;;;;4952834;28;20016;-76
2022/05/24 04:09:24;;;;;;;3.88;1.35;;;14.90;99.90;;;;;;4953366;29;20039;-76
2022/05/24 04:11:49;;;;;;;7.20;1.38;;;14.90;99.90;;;;;;4954531;29;20031;-79
2022/05/24 04:14:15;;;;;;;7.32;1.40;;;14.80;99.90;;;;;;4954571;28;20023;-77
2022/05/24 04:16:41;;;;;;;4.57;1.38;;;14.70;99.90;;;;;;4954012;29;20471;-76
2022/05/24 04:19:06;;;;;;;2.55;0.93;;;14.70;99.90;;;;;;4952136;29;20054;-77
2022/05/24 04:21:32;;;;;;;4.10;1.02;;;14.70;99.90;;;;;;4953151;28;20027;-76
2022/05/24 04:23:58;;;;;;;5.88;1.90;;;14.70;99.90;;;;;;4954183;29;20027;-78
2022/05/24 04:26:24;;;;;;;7.00;1.48;;;14.80;99.90;;;;;;4954471;28;20015;-77
2022/05/24 04:28:50;;;;;;;6.13;1.25;;;14.70;99.90;;;;;;4957664;28;20364;-77
2022/05/24 04:31:15;;;;;;;10.65;1.65;;;14.70;99.90;;;;;;4941361;29;20024;-77
2022/05/24 04:33:41;;;;;;;3.00;1.15;;;14.90;99.90;;;;;;4943616;29;20038;-76
2022/05/24 04:36:07;;;;;;;9.32;1.48;;;14.90;99.90;;;;;;4953557;28;20043;-77
2022/05/24 04:38:33;;;;;;;4.95;1.15;;;14.90;99.90;;;;;;4950562;29;20027;-76
2022/05/24 04:43:43;;;;;;;3.63;1.50;;;14.80;99.90;;;;;;4957030;29;20030;-76
2022/05/24 04:46:08;;;;;;;4.20;1.00;;;14.80;99.90;;;;;;4950687;28;20470;-76
2022/05/24 04:48:34;;;;;;;5.47;1.13;;;14.80;99.90;;;;;;4952642;29;20028;-77
2022/05/24 04:51:00;;;;;;;6.80;1.58;;;15.00;99.90;;;;;;4949549;29;20094;-76
2022/05/24 04:53:27;;;;;;;5.43;1.15;;;14.90;99.90;;;;;;4956737;28;20074;-78
2022/05/24 04:55:53;;;;;;;5.55;1.20;;;15.00;99.90;;;;;;4956172;29;20077;-77
2022/05/24 04:58:19;;;;;;;12.52;1.55;;;14.90;99.90;;;;;;4949930;29;20102;-75
2022/05/24 05:00:46;;;;;;;5.07;1.27;;;14.90;99.90;;;;;;4947323;28;20090;-76
2022/05/24 05:03:14;;;;;;;5.68;1.25;;;15.00;99.90;;;;;;4945210;29;20033;-76
2022/05/24 05:05:40;;;;;;;5.57;1.40;;;14.90;99.90;;;;;;4947238;29;20032;-76
2022/05/24 05:08:07;;;;;;;5.78;1.00;;;14.80;99.90;;;;;;4947987;29;20054;-76
2022/05/24 05:10:34;;;;;;;7.63;1.27;;;14.70;99.90;;;;;;4956360;29;20019;-76
2022/05/24 10:26:56;;;;;;;5.72;1.13;;;17.30;94.00;;;;;;5388213;23;20371;-75
2022/05/24 10:29:31;;;;;;;9.32;1.30;;;17.30;94.10;;;;;;4956117;28;20027;-75
2022/05/24 10:32:07;;;;;;;6.57;1.15;;;17.30;94.30;;;;;;4955517;28;20106;-74
2022/05/24 10:38:20;;;;;;;5.60;1.45;;;17.10;95.20;;;;;;4955998;28;20502;-75
2022/05/24 10:40:59;;;;;;;7.45;1.38;;;17.10;95.10;;;;;;4955822;28;20471;-75
2022/05/24 10:43:33;;;;;;;10.65;1.40;;;17.10;95.60;;;;;;4956052;28;20027;-75
2022/05/24 10:46:23;;;;;;;12.90;1.83;;;16.70;96.90;;;;;;4955466;28;20028;-75
2022/05/24 10:49:14;;;;;;;5.95;1.52;;;16.70;97.30;;;;;;4953467;29;20051;-75
2022/05/24 10:52:06;;;;;;;8.70;1.63;;;16.60;97.60;;;;;;4955544;28;20030;-74
2022/05/24 10:54:36;;;;;;;5.63;1.30;;;16.40;97.20;;;;;;4954681;28;20043;-75
2022/05/24 10:57:14;;;;;;;6.40;1.10;;;16.60;97.40;;;;;;4955126;28;20027;-74
2022/05/24 10:59:44;;;;;;;6.20;1.20;;;16.60;96.30;;;;;;4955655;28;20105;-74
2022/05/24 11:02:35;;;;;;;5.82;1.20;;;16.90;96.80;;;;;;4961150;28;20078;-75
2022/05/24 11:05:14;;;;;;;7.75;1.40;;;16.60;96.90;;;;;;4974077;28;20185;-75
2022/05/24 11:07:40;;;;;;;7.70;1.33;;;16.80;96.90;;;;;;4974018;28;20058;-75
2022/05/24 11:10:14;;;;;;;5.20;1.45;;;16.90;97.30;;;;;;4974536;28;20059;-74
2022/05/24 11:13:03;;;;;;;4.63;1.35;;;17.10;96.30;;;;;;4955066;28;20490;-75
2022/05/24 11:15:51;;;;;;;11.05;1.70;;;17.00;96.50;;;;;;4955144;28;20467;-75
2022/05/24 11:18:20;;;;;;;5.03;1.13;;;17.00;96.50;;;;;;4954917;28;20479;-75
2022/05/24 11:21:15;;;;;;;7.35;1.52;;;16.70;96.50;;;;;;4954506;28;20040;-74
2022/05/24 14:37:08;;;;;;;5.03;1.10;;;17.90;93.80;;;;;;5979742;23;20869;31
2022/05/24 14:39:35;;;;;;;12.90;1.27;;;17.70;95.30;;;;;;4912244;29;20048;-77
2022/05/24 14:42:01;;;;;;;5.80;1.73;;;17.40;96.10;;;;;;4920885;29;20082;-77
2022/05/24 14:44:30;;;;;;;10.40;1.52;;;17.30;97.00;;;;;;4921524;29;20027;-76
2022/05/24 14:46:57;;;;;;;8.40;1.33;;;17.10;98.40;;;;;;4917049;29;20171;-77
2022/05/24 14:49:25;;;;;;;4.68;1.20;;;16.90;99.30;;;;;;4916738;29;20024;-76
2022/05/24 14:51:58;;;;;;;6.03;1.45;;;16.80;99.90;;;;;;4916654;29;20520;-77
2022/05/24 14:54:24;;;;;;;13.90;1.60;;;16.70;99.50;;;;;;4922271;29;20016;-77
2022/05/24 14:56:51;;;;;;;23.77;2.28;;;16.70;99.90;;;;;;4916912;29;20032;-76
2022/05/24 14:59:17;;;;;;;20.70;2.80;;;16.30;99.90;;;;;;4917129;29;20495;-77
2022/05/24 15:01:44;;;;;;;8.15;1.25;;;16.20;99.90;;;;;;4898953;29;20029;-76
2022/05/24 15:04:11;;;;;;;29.55;2.42;;;16.30;99.90;;;;;;4916692;29;20024;-77
2022/05/24 15:06:40;;;;;;;5.95;1.27;;;16.20;99.90;;;;;;4927776;29;20059;-77
2022/05/24 15:17:33;;;;;;;6.78;1.00;;;15.90;99.90;;;;;;4921276;29;20134;-76
2022/05/24 15:20:04;;;;;;;8.52;1.60;;;15.70;99.90;;;;;;4919777;29;20043;-76
2022/05/24 15:22:32;;;;;;;6.22;1.23;;;15.80;99.90;;;;;;4916067;29;20020;-77
2022/05/24 15:24:58;;;;;;;5.63;1.13;;;15.70;99.90;;;;;;4917108;29;20116;-76
2022/05/24 15:27:24;;;;;;;5.18;1.00;;;15.50;99.90;;;;;;4915664;29;20119;-79
2022/05/24 15:29:50;;;;;;;3.63;0.88;;;15.50;99.90;;;;;;4915728;29;20527;-77
2022/05/24 15:32:15;;;;;;;5.43;1.05;;;15.40;99.90;;;;;;4915566;29;20028;-77
2022/05/24 15:34:41;;;;;;;4.90;0.90;;;15.30;99.90;;;;;;4916329;29;20480;-80
2022/05/24 15:37:08;;;;;;;6.70;1.00;;;14.90;99.90;;;;;;4915874;29;20384;-79
2022/05/24 15:39:34;;;;;;;5.97;1.35;;;15.00;99.90;;;;;;4923093;29;20361;-76
2022/05/24 15:42:00;;;;;;;5.63;0.90;;;15.00;99.90;;;;;;4909709;29;20020;-77
2022/05/24 15:44:25;;;;;;;9.60;1.20;;;14.90;99.90;;;;;;4914565;29;20563;-80
2022/05/24 15:46:56;;;;;;;6.00;0.95;;;14.90;99.90;;;;;;4909170;29;20515;-76
2022/05/24 15:49:23;;;;;;;3.83;1.00;;;15.10;99.90;;;;;;4910893;29;20016;-77
2022/05/24 15:51:49;;;;;;;4.38;1.20;;;14.80;99.90;;;;;;4915009;29;20035;-77
2022/05/24 15:54:15;;;;;;;2.92;0.80;;;14.90;99.90;;;;;;4916723;29;20024;-77
2022/05/24 15:56:40;;;;;;;4.60;1.42;;;14.50;99.90;;;;;;4910935;29;20043;-77
2022/05/24 15:59:06;;;;;;;3.05;0.68;;;14.50;99.90;;;;;;4909291;29;20071;-77
2022/05/24 16:01:32;;;;;;;3.72;0.73;;;14.60;99.90;;;;;;4910338;29;20029;-77
2022/05/24 16:03:58;;;;;;;4.50;1.13;;;14.80;99.90;;;;;;4907255;29;20032;-77
2022/05/24 16:11:55;;;;;;;4.78;1.40;;;14.70;99.90;;;;;;4902804;29;20444;-76
2022/05/24 16:14:26;;;;;;;5.18;1.00;;;14.80;99.90;;;;;;4907520;29;20028;-76
2022/05/24 16:16:55;;;;;;;3.25;0.95;;;14.70;99.90;;;;;;4905699;29;20036;-76
2022/05/24 16:19:21;;;;;;;4.03;0.93;;;14.40;99.90;;;;;;4913254;29;20052;-77
2022/05/24 16:21:47;;;;;;;5.25;1.45;;;14.40;99.90;;;;;;4928961;29;20056;-77
2022/05/24 16:24:13;;;;;;;3.30;1.00;;;14.70;99.90;;;;;;4918905;29;20028;-77
2022/05/24 16:26:39;;;;;;;2.80;1.00;;;14.80;99.90;;;;;;4903788;29;20028;-77
2022/05/24 16:29:05;;;;;;;4.15;1.00;;;14.90;99.90;;;;;;4914695;29;20027;-77
2022/05/24 16:31:32;;;;;;;4.20;1.08;;;14.80;99.90;;;;;;4918423;29;20111;-77
2022/05/24 16:33:58;;;;;;;6.30;1.17;;;14.80;99.90;;;;;;4914077;29;20176;-77
2022/05/24 16:36:24;;;;;;;6.25;1.60;;;14.80;99.90;;;;;;4902104;29;20528;-77
2022/05/24 16:38:51;;;;;;;7.90;1.48;;;15.10;99.90;;;;;;4900417;29;20124;-77
2022/05/24 16:41:17;;;;;;;2.92;1.00;;;15.10;99.90;;;;;;4903713;29;20029;-77
2022/05/24 16:43:43;;;;;;;7.18;0.95;;;15.10;99.90;;;;;;4923685;29;20031;-77
2022/05/24 16:46:09;;;;;;;2.33;1.00;;;15.10;99.90;;;;;;4919435;29;20051;-77
2022/05/24 16:48:36;;;;;;;4.72;1.30;;;15.30;99.90;;;;;;4907084;29;20484;-77
2022/05/24 16:51:05;;;;;;;4.50;1.17;;;15.30;99.90;;;;;;4917026;29;20029;-77
2022/05/24 16:53:36;;;;;;;2.72;0.70;;;15.30;99.90;;;;;;4911025;29;20101;-80
2022/05/24 16:58:47;;;;;;;3.63;0.90;;;15.20;99.90;;;;;;4911612;29;19913;-76
2022/05/24 17:01:18;;;;;;;6.38;1.00;;;15.10;99.90;;;;;;4916321;29;20152;-76
2022/05/24 17:03:44;;;;;;;3.03;1.08;;;15.10;99.90;;;;;;4915205;29;20032;-77
2022/05/24 17:06:11;;;;;;;2.50;0.77;;;14.80;99.90;;;;;;4907747;29;20039;-76
2022/05/24 17:08:37;;;;;;;6.85;1.50;;;14.80;99.90;;;;;;4908310;29;20044;-76
2022/05/24 17:11:04;;;;;;;3.58;1.17;;;14.80;99.90;;;;;;4911661;29;20055;-81
2022/05/24 17:13:30;;;;;;;3.47;1.02;;;14.80;99.90;;;;;;4916109;29;20024;-76
2022/05/24 17:15:56;;;;;;;4.35;1.10;;;14.60;99.90;;;;;;4915260;29;20033;-76
2022/05/24 17:18:22;;;;;;;4.50;1.20;;;14.70;99.90;;;;;;4908961;29;20457;-77
2022/05/24 17:20:48;;;;;;;2.58;0.90;;;14.60;99.90;;;;;;4916246;29;20032;-76
2022/05/24 17:23:14;;;;;;;4.10;0.90;;;14.40;99.90;;;;;;4918200;29;20024;-77
2022/05/24 17:25:40;;;;;;;4.38;1.30;;;14.40;99.90;;;;;;4904444;29;20511;-76
2022/05/24 17:28:08;;;;;;;3.47;0.90;;;14.50;99.90;;;;;;4901413;29;20028;-77
2022/05/24 17:30:36;;;;;;;3.20;1.00;;;14.50;99.90;;;;;;4906340;29;20017;-77
2022/05/24 17:33:16;;;;;;;3.83;1.00;;;14.40;99.90;;;;;;4905615;29;20055;-77
2022/05/24 17:35:42;;;;;;;4.50;1.23;;;14.30;99.90;;;;;;4907908;29;20087;-77
2022/05/24 17:38:09;;;;;;;4.20;1.17;;;14.20;99.90;;;;;;4906461;29;20049;-77
2022/05/24 17:40:39;;;;;;;7.38;1.40;;;14.20;99.90;;;;;;4912031;29;20484;-77
2022/05/24 17:43:07;;;;;;;6.97;1.58;;;14.30;99.90;;;;;;4917189;29;20036;-76
2022/05/24 17:45:34;;;;;;;4.80;1.58;;;14.10;99.90;;;;;;4913184;29;20028;-82
2022/05/24 17:48:04;;;;;;;5.68;1.33;;;14.00;99.90;;;;;;4915342;29;20020;-76
2022/05/24 17:50:31;;;;;;;5.32;1.58;;;14.10;99.90;;;;;;4918572;29;20028;-78
2022/05/24 17:52:57;;;;;;;6.80;2.05;;;14.10;99.90;;;;;;4915689;29;21483;-77
2022/05/24 17:55:23;;;;;;;6.32;1.80;;;14.00;99.90;;;;;;4903040;29;20031;-77
2022/05/24 17:57:48;;;;;;;4.85;1.80;;;13.90;99.90;;;;;;4908773;29;20491;-78
2022/05/24 18:00:15;;;;;;;6.53;1.60;;;13.80;99.90;;;;;;4918470;29;20833;-77
2022/05/24 18:02:41;;;;;;;4.57;1.38;;;14.00;99.90;;;;;;4910150;29;20032;-76
2022/05/24 18:05:09;;;;;;;6.05;2.05;;;13.90;99.90;;;;;;4906341;29;20565;-77
2022/05/24 18:07:35;;;;;;;9.95;1.92;;;14.00;99.90;;;;;;4922904;29;20493;-77
2022/05/24 18:10:01;;;;;;;9.38;3.38;;;13.90;99.90;;;;;;4908165;29;20036;-77
2022/05/24 18:12:27;;;;;;;9.77;2.88;;;14.00;99.90;;;;;;4918236;29;20032;-76
2022/05/24 18:14:52;;;;;;;7.10;2.38;;;14.00;99.90;;;;;;4917247;29;20103;-77
2022/05/24 18:17:18;;;;;;;10.48;2.92;;;13.90;99.90;;;;;;4917396;29;20027;-78
2022/05/24 18:19:44;;;;;;;5.90;2.33;;;13.80;99.90;;;;;;4909635;29;20388;-78
2022/05/24 18:22:17;;;;;;;9.38;2.30;;;13.60;99.90;;;;;;4920710;29;20387;-77
2022/05/24 18:24:54;;;;;;;10.57;3.40;;;13.90;99.90;;;;;;4928780;29;20032;-83
2022/05/24 18:33:11;;;;;;;11.82;2.50;;;13.90;99.90;;;;;;4884740;29;20105;-76
2022/05/24 18:35:48;;;;;;;8.10;2.70;;;13.90;99.90;;;;;;4881834;29;20532;-77
2022/05/24 18:38:14;;;;;;;10.27;2.60;;;14.00;99.90;;;;;;4882496;29;20108;-77
2022/05/24 18:40:39;;;;;;;11.55;2.80;;;13.90;99.90;;;;;;4882365;29;20105;-77
2022/05/24 18:43:06;;;;;;;8.85;2.92;;;13.70;99.90;;;;;;4891287;29;20037;-77
2022/05/24 18:45:33;;;;;;;8.07;2.40;;;13.80;99.90;;;;;;4879959;29;20032;-78
2022/05/24 18:48:01;;;;;;;7.45;2.65;;;13.70;99.90;;;;;;4887893;29;20124;-77
2022/05/24 18:50:27;;;;;;;7.45;2.10;;;13.80;99.90;;;;;;4881803;29;20043;-77
2022/05/24 18:52:53;;;;;;;6.13;1.52;;;13.70;99.90;;;;;;4892794;29;20396;-77
2022/05/24 18:55:18;;;;;;;5.80;2.30;;;13.70;99.90;;;;;;4890136;29;20040;-77
2022/05/24 18:57:44;;;;;;;10.80;2.28;;;13.50;99.90;;;;;;4884577;29;20068;-77
2022/05/24 19:00:10;;;;;;;7.30;1.77;;;13.50;99.90;;;;;;4882247;29;20497;-77
2022/05/24 19:02:36;;;;;;;9.07;1.38;;;13.30;99.90;;;;;;4886194;29;20080;-77
2022/05/24 19:05:03;;;;;;;3.63;1.40;;;13.50;99.90;;;;;;4875701;29;20040;-78
2022/05/24 19:07:29;;;;;;;4.70;1.45;;;13.60;99.90;;;;;;4890742;29;20032;-77
2022/05/24 19:09:55;;;;;;;4.25;1.40;;;13.50;99.90;;;;;;4887405;29;20417;-77
2022/05/24 19:12:22;;;;;;;2.53;1.23;;;13.50;99.90;;;;;;4908270;29;20023;-77
2022/05/24 19:14:49;;;;;;;3.53;1.25;;;13.50;99.90;;;;;;4901289;29;20080;-75
2022/05/24 19:17:19;;;;;;;4.32;1.20;;;13.40;99.90;;;;;;4907224;29;20401;-81
2022/05/24 19:19:45;;;;;;;9.18;2.03;;;13.50;99.90;;;;;;4911125;29;20087;-78
2022/05/24 19:22:13;;;;;;;4.53;1.00;;;13.30;99.90;;;;;;4912524;29;20028;-77
2022/05/24 19:24:40;;;;;;;4.53;1.20;;;13.50;99.90;;;;;;4912405;29;20027;-78
2022/05/24 19:27:08;;;;;;;5.57;1.27;;;13.40;99.90;;;;;;4913884;29;20028;-77
2022/05/24 19:29:35;;;;;;;8.40;1.40;;;13.40;99.90;;;;;;4905111;29;20028;-77
2022/05/24 19:32:01;;;;;;;3.45;1.20;;;13.10;99.90;;;;;;4906373;29;20049;-77
2022/05/24 19:34:33;;;;;;;6.15;1.30;;;13.30;99.90;;;;;;4905598;29;20012;-77
2022/05/24 19:37:01;;;;;;;;;;;13.30;99.90;;;;;;4908385;29;20020;-78
2022/05/24 19:42:11;;;;;;;4.78;1.52;;;13.20;99.90;;;;;;4908853;29;20499;-77
2022/05/24 19:44:37;;;;;;;13.25;1.77;;;13.30;99.90;;;;;;4905737;29;20115;-77
2022/05/24 19:47:03;;;;;;;4.95;1.10;;;13.30;99.90;;;;;;4906025;29;20368;-77
2022/05/24 19:49:29;;;;;;;3.67;1.00;;;13.30;99.90;;;;;;4906652;29;20024;-77
2022/05/24 19:51:57;;;;;;;4.88;1.10;;;13.30;99.90;;;;;;4905224;29;20025;-77
2022/05/24 19:54:23;;;;;;;4.05;0.88;;;13.40;99.90;;;;;;4905972;29;20099;-77
2022/05/24 19:56:52;;;;;;;6.80;1.02;;;13.30;99.90;;;;;;4906313;29;20140;-77
2022/05/24 19:59:18;;;;;;;19.45;1.42;;;13.30;99.90;;;;;;4904682;29;20493;-77
2022/05/24 20:01:43;;;;;;;5.72;1.30;;;13.40;99.90;;;;;;4905004;29;20035;-77
2022/05/24 20:04:09;;;;;;;6.97;1.35;;;13.40;99.90;;;;;;4904839;29;20031;-77
2022/05/24 20:06:35;;;;;;;1.95;0.60;;;13.10;99.90;;;;;;4906768;29;20075;-77
2022/05/24 20:09:02;;;;;;;4.50;1.08;;;13.30;99.90;;;;;;4906554;29;20036;-77
2022/05/24 20:11:31;;;;;;;4.00;1.02;;;13.40;99.90;;;;;;4904897;29;20032;-77
2022/05/24 20:13:58;;;;;;;5.75;1.25;;;13.40;99.90;;;;;;4911996;29;20020;-77
2022/05/24 20:16:23;;;;;;;9.82;1.30;;;13.40;99.90;;;;;;4905000;29;20111;-77
2022/05/24 20:18:49;;;;;;;7.05;1.42;;;13.40;99.90;;;;;;4906820;29;20111;-78
2022/05/24 20:21:15;;;;;;;6.28;1.20;;;13.40;99.90;;;;;;4904045;29;20606;-77
2022/05/24 20:23:40;;;;;;;3.22;1.10;;;13.50;99.90;;;;;;4901915;29;20068;-77
2022/05/24 20:26:06;;;;;;;7.47;1.98;;;13.30;99.90;;;;;;4906461;29;20025;-77
2022/05/24 20:28:32;;;;;;;6.38;1.85;;;13.40;99.90;;;;;;4899553;29;20141;-77
2022/05/24 20:30:58;;;;;;;4.32;1.40;;;13.40;99.90;;;;;;4897731;29;20028;-77
2022/05/24 20:33:23;;;;;;;4.05;1.60;;;13.30;99.90;;;;;;4897085;29;20033;-77
2022/05/24 20:35:49;;;;;;;6.00;1.85;;;13.30;99.90;;;;;;4897286;29;20033;-77
2022/05/24 20:38:17;;;;;;;5.55;1.52;;;13.30;99.90;;;;;;4896876;29;20096;-77
2022/05/24 20:40:42;;;;;;;6.30;1.60;;;13.30;99.90;;;;;;4911879;29;20133;-77
2022/05/24 20:43:08;;;;;;;9.43;1.33;;;13.30;99.90;;;;;;4914194;29;20073;-77
2022/05/24 20:45:34;;;;;;;3.15;1.38;;;13.50;99.90;;;;;;4915960;29;20036;-77
2022/05/24 20:48:00;;;;;;;4.13;1.20;;;13.40;99.90;;;;;;4914231;29;20504;-77
2022/05/24 20:50:26;;;;;;;2.55;1.40;;;13.40;99.90;;;;;;4916069;29;20035;-77
2022/05/24 20:52:53;;;;;;;3.60;1.13;;;13.40;99.90;;;;;;4916136;29;20029;-77
2022/05/24 20:55:20;;;;;;;4.45;1.25;;;13.40;99.90;;;;;;4914639;29;20050;-77
2022/05/24 20:57:46;;;;;;;3.92;1.17;;;13.20;99.90;;;;;;4915095;29;20620;-77
2022/05/24 21:00:12;;;;;;;3.47;1.35;;;13.10;99.90;;;;;;4929872;29;20115;-77
2022/05/24 21:02:39;;;;;;;3.13;1.00;;;13.10;99.90;;;;;;4923722;29;20036;-77
2022/05/24 21:05:04;;;;;;;5.45;2.22;;;13.20;99.90;;;;;;4915435;29;20507;-77
2022/05/24 21:07:33;;;;;;;7.10;1.20;;;13.20;99.90;;;;;;4915013;29;20056;-77
2022/05/24 21:10:03;;;;;;;4.53;1.00;;;13.10;99.90;;;;;;4917840;29;20559;-77
2022/05/24 21:12:30;;;;;;;2.50;1.08;;;13.10;99.90;;;;;;4918759;29;20028;-77
2022/05/24 21:14:56;;;;;;;2.03;1.02;;;13.00;99.90;;;;;;4933325;29;20047;-76
2022/05/24 21:17:25;;;;;;;3.90;1.40;;;13.00;99.90;;;;;;4918100;29;20020;-77
2022/05/24 21:19:51;;;;;;;3.33;1.00;;;12.80;99.90;;;;;;4933263;29;20428;-77
2022/05/24 21:22:17;;;;;;;3.40;1.17;;;13.00;99.90;;;;;;4918113;29;20055;-77
2022/05/24 21:24:43;;;;;;;3.13;1.20;;;13.20;99.90;;;;;;4899494;29;20020;-77
2022/05/24 21:29:55;;;;;;;2.83;1.02;;;13.10;99.90;;;;;;4918792;29;20083;-77
2022/05/24 21:35:05;;;;;;;3.75;1.50;;;13.10;99.90;;;;;;4919099;29;20027;-77
2022/05/24 21:37:32;;;;;;;10.02;1.60;;;13.00;99.90;;;;;;4918341;29;20083;-77
2022/05/24 21:39:57;;;;;;;4.13;1.20;;;13.00;99.90;;;;;;4912628;29;20076;-77
2022/05/24 21:42:23;;;;;;;5.72;1.77;;;13.10;99.90;;;;;;4899317;29;20029;-77
2022/05/24 21:44:49;;;;;;;4.32;1.58;;;13.10;99.90;;;;;;4899135;29;20438;-77
2022/05/24 21:47:15;;;;;;;2.20;0.75;;;13.10;99.90;;;;;;4899550;29;20024;-77
2022/05/24 21:49:41;;;;;;;4.40;1.10;;;13.00;99.90;;;;;;4908073;29;20028;-77
2022/05/24 21:52:06;;;;;;;6.03;1.00;;;13.00;99.90;;;;;;4917601;29;20034;-77
2022/05/24 21:54:32;;;;;;;2.58;0.80;;;13.00;99.90;;;;;;4916138;29;20035;-77
2022/05/24 21:56:59;;;;;;;3.05;1.00;;;13.00;99.90;;;;;;4918345;29;20024;-77
2022/05/24 21:59:24;;;;;;;6.70;1.00;;;13.00;99.90;;;;;;4917687;29;20024;-77
2022/05/24 22:01:50;;;;;;;4.05;0.80;;;12.90;99.90;;;;;;4916240;29;20052;-77
2022/05/24 22:04:17;;;;;;;5.00;1.13;;;12.80;99.90;;;;;;4908521;29;20028;-77
2022/05/24 22:06:43;;;;;;;6.22;1.20;;;12.80;99.90;;;;;;4898140;29;20039;-77
2022/05/24 22:09:08;;;;;;;4.38;1.10;;;12.80;99.90;;;;;;4907081;29;20024;-77
2022/05/24 22:11:36;;;;;;;5.20;1.20;;;12.90;99.90;;;;;;4917386;29;20392;-77